createdAt,value
2019-04-30T00:02:05.695Z,11.10
2019-04-30T00:04:41.093Z,11.12
2019-04-30T00:07:15.515Z,11.14
2019-04-30T00:09:49.243Z,11.14
2019-04-30T00:12:20.381Z,11.12
2019-04-30T00:14:52.066Z,11.11
2019-04-30T00:17:25.707Z,11.12
2019-04-30T00:19:59.775Z,11.12
2019-04-30T00:22:34.168Z,11.13
2019-04-30T00:25:05.607Z,11.12
2019-04-30T00:27:37.277Z,11.10
2019-04-30T00:30:09.246Z,11.10
2019-04-30T00:32:43.639Z,11.10
2019-04-30T00:35:16.229Z,11.09
2019-04-30T00:37:52.013Z,11.11
2019-04-30T00:40:28.697Z,11.12
2019-04-30T00:43:00.277Z,11.12
2019-04-30T00:45:29.870Z,11.12
2019-04-30T00:48:01.463Z,11.12
2019-04-30T00:50:35.025Z,11.12
2019-04-30T00:53:12.509Z,11.15
2019-04-30T00:55:44.998Z,11.15
2019-04-30T00:58:19.675Z,11.15
2019-04-30T01:01:19.604Z,11.16
2019-04-30T01:03:57.088Z,11.15
2019-04-30T01:06:28.812Z,11.14
2019-04-30T01:09:05.442Z,11.15
2019-04-30T01:11:39.801Z,11.15
2019-04-30T01:14:09.843Z,11.16
2019-04-30T01:16:41.496Z,11.16
2019-04-30T01:19:27.565Z,11.15
2019-04-30T01:21:47.139Z,11.17
2019-04-30T01:24:23.526Z,11.17
2019-04-30T01:26:53.070Z,11.19
2019-04-30T01:29:24.767Z,11.19
2019-04-30T01:31:56.343Z,11.21
2019-04-30T01:34:29.449Z,11.19
2019-04-30T01:37:01.119Z,11.22
2019-04-30T01:39:34.236Z,11.24
2019-04-30T01:42:07.914Z,11.25
2019-04-30T01:44:43.230Z,11.25
2019-04-30T01:47:12.619Z,11.27
2019-04-30T01:49:44.813Z,11.26
2019-04-30T01:52:16.627Z,11.25
2019-04-30T01:54:49.067Z,11.25
2019-04-30T01:57:39.524Z,11.25
2019-04-30T02:00:29.308Z,11.27
2019-04-30T02:03:01.060Z,11.28
2019-04-30T02:05:32.667Z,11.30
2019-04-30T02:08:04.259Z,11.29
2019-04-30T02:10:35.851Z,11.29
2019-04-30T02:13:08.930Z,11.30
2019-04-30T02:15:40.524Z,11.30
2019-04-30T02:18:12.140Z,11.28
2019-04-30T02:20:43.707Z,11.29
2019-04-30T02:23:15.326Z,11.29
2019-04-30T02:25:48.916Z,11.28
2019-04-30T02:28:20.180Z,11.28
2019-04-30T02:30:51.757Z,11.30
2019-04-30T02:33:23.508Z,11.30
2019-04-30T02:36:16.833Z,11.32
2019-04-30T02:38:51.349Z,11.33
2019-04-30T02:41:23.702Z,11.35
2019-04-30T02:43:59.688Z,11.35
2019-04-30T02:46:32.356Z,11.36
2019-04-30T02:49:05.944Z,11.37
2019-04-30T02:51:40.715Z,11.36
2019-04-30T02:54:36.295Z,11.36
2019-04-30T02:57:12.214Z,11.37
2019-04-30T03:00:02.326Z,11.38
2019-04-30T03:02:35.670Z,11.38
2019-04-30T03:05:12.813Z,11.40
2019-04-30T03:07:41.595Z,11.39
2019-04-30T03:10:13.392Z,11.39
2019-04-30T03:12:44.966Z,11.39
2019-04-30T03:15:16.575Z,11.38
2019-04-30T03:18:19.662Z,11.40
2019-04-30T03:21:09.758Z,11.41
2019-04-30T03:23:41.495Z,11.42
2019-04-30T03:26:13.241Z,11.43
2019-04-30T03:28:44.803Z,11.42
2019-04-30T03:31:16.398Z,11.43
2019-04-30T03:33:51.952Z,11.44
2019-04-30T03:36:22.021Z,11.43
2019-04-30T03:38:53.835Z,11.44
2019-04-30T03:41:25.864Z,11.44
2019-04-30T03:44:16.068Z,11.43
2019-04-30T03:46:30.742Z,11.46
2019-04-30T03:49:02.363Z,11.45
2019-04-30T03:51:33.988Z,11.49
2019-04-30T03:54:05.668Z,11.52
2019-04-30T03:56:39.605Z,11.51
2019-04-30T03:59:11.007Z,11.53
2019-04-30T04:02:20.839Z,11.54
2019-04-30T04:05:05.113Z,11.52
2019-04-30T04:07:59.884Z,11.53
2019-04-30T04:10:56.536Z,11.51
2019-04-30T04:13:30.069Z,11.50
2019-04-30T04:16:01.408Z,11.51
2019-04-30T04:18:33.031Z,11.51
2019-04-30T04:21:12.118Z,11.53
2019-04-30T04:23:39.945Z,11.53
2019-04-30T04:26:11.292Z,11.53
2019-04-30T04:28:43.608Z,11.56
2019-04-30T04:31:15.259Z,11.54
2019-04-30T04:33:49.647Z,11.55
2019-04-30T04:36:20.195Z,11.58
2019-04-30T04:38:51.778Z,11.60
2019-04-30T04:41:23.348Z,11.59
2019-04-30T04:43:54.964Z,11.60
2019-04-30T04:46:26.554Z,11.61
2019-04-30T04:48:59.634Z,11.62
2019-04-30T04:51:38.517Z,11.65
2019-04-30T04:54:04.776Z,11.66
2019-04-30T04:56:36.321Z,11.68
2019-04-30T04:59:10.195Z,11.67
2019-04-30T05:01:41.194Z,11.70
2019-04-30T05:04:12.792Z,11.72
2019-04-30T05:06:44.382Z,11.74
2019-04-30T05:09:15.976Z,11.75
2019-04-30T05:11:48.761Z,11.75
2019-04-30T05:14:20.561Z,11.77
2019-04-30T05:16:52.144Z,11.78
2019-04-30T05:19:23.723Z,11.78
2019-04-30T05:21:55.394Z,11.84
2019-04-30T05:24:28.632Z,11.79
2019-04-30T05:27:00.356Z,11.84
2019-04-30T05:29:32.036Z,11.84
2019-04-30T05:32:03.631Z,11.89
2019-04-30T05:34:35.229Z,11.91
2019-04-30T05:37:08.670Z,11.92
2019-04-30T05:39:40.102Z,11.94
2019-04-30T05:42:11.727Z,11.93
2019-04-30T05:44:43.315Z,11.97
2019-04-30T05:47:14.926Z,12.02
2019-04-30T05:49:48.709Z,11.97
2019-04-30T05:52:20.098Z,12.01
2019-04-30T05:54:51.740Z,12.02
2019-04-30T05:57:23.352Z,12.03
2019-04-30T05:59:54.946Z,12.03
2019-04-30T06:02:30.610Z,12.02
2019-04-30T06:05:00.808Z,12.04
2019-04-30T06:07:32.412Z,12.06
2019-04-30T06:10:21.231Z,12.07
2019-04-30T06:12:59.350Z,12.10
2019-04-30T06:15:35.319Z,12.12
2019-04-30T06:18:13.431Z,12.10
2019-04-30T06:20:40.235Z,12.13
2019-04-30T06:23:11.848Z,12.16
2019-04-30T06:25:56.378Z,12.18
2019-04-30T06:28:17.352Z,12.17
2019-04-30T06:30:49.338Z,12.14
2019-04-30T06:33:21.181Z,12.15
2019-04-30T06:35:52.959Z,12.14
2019-04-30T06:38:24.546Z,12.15
2019-04-30T06:40:56.182Z,12.20
2019-04-30T06:43:28.737Z,12.22
2019-04-30T06:46:00.644Z,12.23
2019-04-30T06:48:32.890Z,12.18
2019-04-30T06:51:04.501Z,12.12
2019-04-30T06:53:36.140Z,11.82
2019-04-30T06:56:08.896Z,11.75
2019-04-30T06:58:41.445Z,11.76
2019-04-30T07:01:13.134Z,11.69
2019-04-30T07:03:44.744Z,11.59
2019-04-30T07:06:27.542Z,11.51
2019-04-30T07:09:08.853Z,11.54
2019-04-30T07:11:43.409Z,11.52
2019-04-30T07:14:15.207Z,11.55
2019-04-30T07:16:46.830Z,11.55
2019-04-30T07:19:31.953Z,11.58
2019-04-30T07:21:52.863Z,11.61
2019-04-30T07:24:24.429Z,11.57
2019-04-30T07:26:59.713Z,11.58
2019-04-30T07:29:29.639Z,11.55
2019-04-30T07:32:01.215Z,11.58
2019-04-30T07:34:36.761Z,11.55
2019-04-30T07:37:15.976Z,11.42
2019-04-30T07:39:39.380Z,11.42
2019-04-30T07:42:10.985Z,11.37
2019-04-30T07:44:42.560Z,11.39
2019-04-30T07:47:14.145Z,11.41
2019-04-30T07:49:51.732Z,11.41
2019-04-30T07:52:21.546Z,11.35
2019-04-30T07:54:52.297Z,11.36
2019-04-30T07:57:23.921Z,11.34
2019-04-30T07:59:55.505Z,11.40
2019-04-30T08:02:29.720Z,11.46
2019-04-30T08:05:10.697Z,11.49
2019-04-30T08:07:42.432Z,11.51
2019-04-30T08:10:14.256Z,11.63
2019-04-30T08:12:46.331Z,11.78
2019-04-30T08:15:19.766Z,11.87
2019-04-30T08:18:02.861Z,11.90
2019-04-30T08:20:24.945Z,12.03
2019-04-30T08:22:56.556Z,12.24
2019-04-30T08:25:29.100Z,12.38
2019-04-30T08:28:00.862Z,12.43
2019-04-30T08:30:32.446Z,12.39
2019-04-30T08:33:04.120Z,12.49
2019-04-30T08:35:35.726Z,12.54
2019-04-30T08:38:10.605Z,12.59
2019-04-30T08:40:53.425Z,12.57
2019-04-30T08:43:14.194Z,12.61
2019-04-30T08:45:45.776Z,12.70
2019-04-30T08:48:19.012Z,12.72
2019-04-30T08:50:51.089Z,12.66
2019-04-30T08:53:29.767Z,12.57
2019-04-30T08:55:56.095Z,12.58
2019-04-30T08:58:29.233Z,12.50
2019-04-30T09:01:00.974Z,12.36
2019-04-30T09:03:32.625Z,12.30
2019-04-30T09:06:11.785Z,12.27
2019-04-30T09:08:44.758Z,12.18
2019-04-30T09:11:25.724Z,12.08
2019-04-30T09:13:49.676Z,12.17
2019-04-30T09:16:21.264Z,12.19
2019-04-30T09:18:54.485Z,12.20
2019-04-30T09:21:26.088Z,12.18
2019-04-30T09:23:59.432Z,12.24
2019-04-30T09:26:31.250Z,12.30
2019-04-30T09:29:02.834Z,12.34
2019-04-30T09:31:34.554Z,12.38
2019-04-30T09:34:16.670Z,12.41
2019-04-30T09:36:39.448Z,12.57
2019-04-30T09:39:11.270Z,12.74
2019-04-30T09:41:42.846Z,12.92
2019-04-30T09:44:14.451Z,13.10
2019-04-30T09:46:46.143Z,13.17
2019-04-30T09:49:19.466Z,13.28
2019-04-30T09:51:51.570Z,13.39
2019-04-30T09:54:23.640Z,13.46
2019-04-30T09:56:55.509Z,13.46
2019-04-30T09:59:28.973Z,13.45
2019-04-30T10:02:00.470Z,13.36
2019-04-30T10:04:32.374Z,13.39
2019-04-30T10:07:04.258Z,13.41
2019-04-30T10:09:35.842Z,13.44
2019-04-30T10:12:14.106Z,13.54
2019-04-30T10:14:45.727Z,13.66
2019-04-30T10:17:36.283Z,13.75
2019-04-30T10:20:10.722Z,13.88
2019-04-30T10:22:42.312Z,13.95
2019-04-30T10:25:14.446Z,13.98
2019-04-30T10:27:46.016Z,14.14
2019-04-30T10:30:21.053Z,14.66
2019-04-30T10:32:52.624Z,14.97
2019-04-30T10:35:24.313Z,15.15
2019-04-30T10:37:56.000Z,15.40
2019-04-30T10:40:28.701Z,15.56
2019-04-30T10:43:00.340Z,15.87
2019-04-30T10:45:32.014Z,15.84
2019-04-30T10:48:03.606Z,15.60
2019-04-30T10:50:35.188Z,15.37
2019-04-30T10:53:06.829Z,15.12
2019-04-30T10:55:41.468Z,14.85
2019-04-30T10:58:11.682Z,15.00
2019-04-30T11:00:44.171Z,15.23
2019-04-30T11:03:20.778Z,15.44
2019-04-30T11:05:49.457Z,15.62
2019-04-30T11:08:21.069Z,15.76
2019-04-30T11:10:52.661Z,15.83
2019-04-30T11:13:24.653Z,15.93
2019-04-30T11:15:56.285Z,15.84
2019-04-30T11:18:28.076Z,15.76
2019-04-30T11:21:00.104Z,15.73
2019-04-30T11:23:32.026Z,16.19
2019-04-30T11:26:04.442Z,16.21
2019-04-30T11:28:37.098Z,16.06
2019-04-30T11:31:26.842Z,16.07
2019-04-30T11:34:00.080Z,16.03
2019-04-30T11:36:31.773Z,16.06
2019-04-30T11:39:03.418Z,16.04
2019-04-30T11:41:36.876Z,16.03
2019-04-30T11:44:09.255Z,15.99
2019-04-30T11:47:26.173Z,16.00
2019-04-30T11:49:57.952Z,16.03
2019-04-30T11:52:30.119Z,16.44
2019-04-30T11:55:01.733Z,16.89
2019-04-30T11:57:33.548Z,17.29
2019-04-30T12:00:08.514Z,17.40
2019-04-30T12:02:43.863Z,17.51
2019-04-30T12:05:20.656Z,17.26
2019-04-30T12:08:19.844Z,16.83
2019-04-30T12:11:03.941Z,16.87
2019-04-30T12:13:35.576Z,17.39
2019-04-30T12:16:08.707Z,17.70
2019-04-30T12:18:40.473Z,18.00
2019-04-30T12:21:12.669Z,17.91
2019-04-30T12:23:44.363Z,17.89
2019-04-30T12:26:15.933Z,17.61
2019-04-30T12:28:47.585Z,17.55
2019-04-30T12:31:19.189Z,17.55
2019-04-30T12:33:50.786Z,17.68
2019-04-30T12:36:22.537Z,17.87
2019-04-30T12:38:54.774Z,17.93
2019-04-30T12:41:26.415Z,17.79
2019-04-30T12:43:59.051Z,17.76
2019-04-30T12:46:30.655Z,17.83
2019-04-30T12:49:12.967Z,17.88
2019-04-30T12:52:08.677Z,17.89
2019-04-30T12:54:58.547Z,17.76
2019-04-30T12:57:34.005Z,17.62
2019-04-30T13:00:09.483Z,17.78
2019-04-30T13:02:42.324Z,17.84
2019-04-30T13:05:14.229Z,17.75
2019-04-30T13:07:46.273Z,17.86
2019-04-30T13:10:18.980Z,17.91
2019-04-30T13:12:51.227Z,17.93
2019-04-30T13:15:23.354Z,17.97
2019-04-30T13:17:54.922Z,18.06
2019-04-30T13:20:26.575Z,17.99
2019-04-30T13:22:58.882Z,18.06
2019-04-30T13:25:35.384Z,18.17
2019-04-30T13:28:08.988Z,18.04
2019-04-30T13:30:41.968Z,17.92
2019-04-30T13:33:39.144Z,18.05
2019-04-30T13:36:11.802Z,18.15
2019-04-30T13:39:04.670Z,18.07
2019-04-30T13:41:52.250Z,18.16
2019-04-30T13:44:33.227Z,18.02
2019-04-30T13:47:04.800Z,18.05
2019-04-30T13:49:36.385Z,17.97
2019-04-30T13:52:07.974Z,17.90
2019-04-30T13:54:39.581Z,17.77
2019-04-30T13:57:11.162Z,17.73
2019-04-30T13:59:42.831Z,17.71
2019-04-30T14:02:14.435Z,17.68
2019-04-30T14:05:01.977Z,17.82
2019-04-30T14:07:59.853Z,17.95
2019-04-30T14:10:35.520Z,18.04
2019-04-30T14:13:08.870Z,18.09
2019-04-30T14:15:40.890Z,17.99
2019-04-30T14:18:12.467Z,17.99
2019-04-30T14:20:44.277Z,18.01
2019-04-30T14:23:15.919Z,17.90
2019-04-30T14:25:56.198Z,17.75
2019-04-30T14:28:20.842Z,17.61
2019-04-30T14:30:52.577Z,17.50
2019-04-30T14:33:26.793Z,17.53
2019-04-30T14:36:00.559Z,17.62
2019-04-30T14:38:30.824Z,17.80
2019-04-30T14:41:03.672Z,17.89
2019-04-30T14:43:43.840Z,17.94
2019-04-30T14:46:41.198Z,17.96
2019-04-30T14:49:32.042Z,17.97
2019-04-30T14:52:04.697Z,17.97
2019-04-30T14:54:58.845Z,17.83
2019-04-30T14:57:55.754Z,17.52
2019-04-30T15:00:45.286Z,17.47
2019-04-30T15:03:19.303Z,17.32
2019-04-30T15:05:51.700Z,17.28
2019-04-30T15:08:23.454Z,17.33
2019-04-30T15:10:55.072Z,17.38
2019-04-30T15:13:26.675Z,17.47
2019-04-30T15:15:58.298Z,17.57
2019-04-30T15:18:29.910Z,17.59
2019-04-30T15:21:01.642Z,17.62
2019-04-30T15:23:59.462Z,17.63
2019-04-30T15:26:28.914Z,17.65
2019-04-30T15:29:01.350Z,17.63
2019-04-30T15:31:33.145Z,17.59
2019-04-30T15:34:11.086Z,17.60
2019-04-30T15:36:42.992Z,17.60
2019-04-30T15:39:20.829Z,17.63
2019-04-30T15:41:52.414Z,17.58
2019-04-30T15:44:24.128Z,17.52
2019-04-30T15:46:56.225Z,17.51
2019-04-30T15:49:27.859Z,17.56
2019-04-30T15:51:59.451Z,17.58
2019-04-30T15:54:31.133Z,17.59
2019-04-30T15:57:03.977Z,17.59
2019-04-30T15:59:42.548Z,17.54
2019-04-30T16:02:25.662Z,17.49
2019-04-30T16:05:28.261Z,17.39
2019-04-30T16:08:29.058Z,17.38
2019-04-30T16:11:19.704Z,17.25
2019-04-30T16:14:19.006Z,17.26
2019-04-30T16:17:13.648Z,17.39
2019-04-30T16:19:45.211Z,17.56
2019-04-30T16:22:19.153Z,17.67
2019-04-30T16:24:50.863Z,17.82
2019-04-30T16:27:22.760Z,17.88
2019-04-30T16:29:54.367Z,17.90
2019-04-30T16:32:25.979Z,17.91
2019-04-30T16:34:59.217Z,17.82
2019-04-30T16:37:30.999Z,17.72
2019-04-30T16:40:02.591Z,17.65
2019-04-30T16:42:34.587Z,17.61
2019-04-30T16:45:09.300Z,17.53
2019-04-30T16:47:41.098Z,17.40
2019-04-30T16:50:12.967Z,17.33
2019-04-30T16:52:44.579Z,17.29
2019-04-30T16:55:16.140Z,17.07
2019-04-30T16:57:49.596Z,16.87
2019-04-30T17:00:40.292Z,16.83
2019-04-30T17:03:20.812Z,16.74
2019-04-30T17:05:59.658Z,16.62
2019-04-30T17:08:39.506Z,16.50
2019-04-30T17:11:30.268Z,16.45
2019-04-30T17:14:05.167Z,16.43
2019-04-30T17:16:39.095Z,16.43
2019-04-30T17:19:10.352Z,16.39
2019-04-30T17:21:41.942Z,16.47
2019-04-30T17:24:14.692Z,16.48
2019-04-30T17:26:46.355Z,16.44
2019-04-30T17:29:19.484Z,16.42
2019-04-30T17:31:51.171Z,16.37
2019-04-30T17:34:22.927Z,16.35
2019-04-30T17:36:54.541Z,16.30
2019-04-30T17:39:27.149Z,16.23
2019-04-30T17:41:58.754Z,16.24
2019-04-30T17:44:30.353Z,16.23
2019-04-30T17:47:01.969Z,16.17
2019-04-30T17:49:33.616Z,16.17
2019-04-30T17:52:05.388Z,16.14
2019-04-30T17:54:36.982Z,16.10
2019-04-30T17:57:10.475Z,16.11
2019-04-30T17:59:41.920Z,16.12
2019-04-30T18:02:15.171Z,16.13
2019-04-30T18:04:46.934Z,16.09
2019-04-30T18:07:19.801Z,16.08
2019-04-30T18:09:54.269Z,16.05
2019-04-30T18:12:25.185Z,15.99
2019-04-30T18:14:56.786Z,15.94
2019-04-30T18:17:28.438Z,15.89
2019-04-30T18:20:19.149Z,15.80
2019-04-30T18:23:16.706Z,15.72
2019-04-30T18:25:53.774Z,15.62
2019-04-30T18:28:25.644Z,15.53
2019-04-30T18:30:59.062Z,15.47
2019-04-30T18:33:30.621Z,15.42
2019-04-30T18:36:02.244Z,15.34
2019-04-30T18:38:33.948Z,15.23
2019-04-30T18:41:05.766Z,15.15
2019-04-30T18:43:38.534Z,15.07
2019-04-30T18:46:10.984Z,14.96
2019-04-30T18:48:42.644Z,14.88
2019-04-30T18:51:29.829Z,14.78
2019-04-30T18:53:49.373Z,14.66
2019-04-30T18:56:21.151Z,14.52
2019-04-30T18:58:52.751Z,14.43
2019-04-30T19:01:24.563Z,14.37
2019-04-30T19:03:56.275Z,14.28
2019-04-30T19:06:29.516Z,14.14
2019-04-30T19:09:29.671Z,14.06
2019-04-30T19:12:19.471Z,13.92
2019-04-30T19:15:37.034Z,13.79
2019-04-30T19:18:14.812Z,13.69
2019-04-30T19:20:49.576Z,13.57
2019-04-30T19:23:21.516Z,13.50
2019-04-30T19:25:54.590Z,13.45
2019-04-30T19:28:26.225Z,13.35
2019-04-30T19:31:00.457Z,13.31
2019-04-30T19:33:31.367Z,13.24
2019-04-30T19:36:03.236Z,13.17
2019-04-30T19:38:35.950Z,13.06
2019-04-30T19:41:10.636Z,12.93
2019-04-30T19:43:40.956Z,12.81
2019-04-30T19:46:13.563Z,12.75
2019-04-30T19:48:45.640Z,12.73
2019-04-30T19:51:19.770Z,12.68
2019-04-30T19:53:51.808Z,12.64
2019-04-30T19:56:23.866Z,12.56
2019-04-30T19:59:01.977Z,12.50
2019-04-30T20:01:28.921Z,12.44
2019-04-30T20:04:02.532Z,12.35
2019-04-30T20:06:34.771Z,12.32
2019-04-30T20:09:08.927Z,12.29
2019-04-30T20:11:42.630Z,12.25
2019-04-30T20:14:16.011Z,12.18
2019-04-30T20:16:48.704Z,12.12
2019-04-30T20:19:20.504Z,12.06
2019-04-30T20:21:53.976Z,11.99
2019-04-30T20:24:25.426Z,11.91
2019-04-30T20:27:04.896Z,11.86
2019-04-30T20:29:30.346Z,11.75
2019-04-30T20:32:01.986Z,11.71
2019-04-30T20:34:33.606Z,11.67
2019-04-30T20:37:05.337Z,11.60
2019-04-30T20:39:43.600Z,11.55
2019-04-30T20:42:15.478Z,11.53
2019-04-30T20:44:48.917Z,11.45
2019-04-30T20:47:21.034Z,11.38
2019-04-30T20:49:52.986Z,11.32
2019-04-30T20:52:24.632Z,11.28
2019-04-30T20:54:56.297Z,11.23
2019-04-30T20:57:29.535Z,11.17
2019-04-30T21:00:01.243Z,11.12
2019-04-30T21:02:33.108Z,11.13
2019-04-30T21:05:04.927Z,11.05
2019-04-30T21:07:36.517Z,10.97
2019-04-30T21:10:10.283Z,10.88
2019-04-30T21:12:41.910Z,10.79
2019-04-30T21:15:13.926Z,10.68
2019-04-30T21:17:45.550Z,10.62
2019-04-30T21:20:19.412Z,10.60
2019-04-30T21:22:50.820Z,10.56
2019-04-30T21:25:22.569Z,10.56
2019-04-30T21:27:54.170Z,10.51
2019-04-30T21:30:25.793Z,10.49
2019-04-30T21:33:04.937Z,10.36
2019-04-30T21:35:45.613Z,10.29
2019-04-30T21:38:19.238Z,10.28
2019-04-30T21:40:50.549Z,10.23
2019-04-30T21:43:22.168Z,10.23
2019-04-30T21:45:53.798Z,10.18
2019-04-30T21:48:25.443Z,10.13
2019-04-30T21:50:57.085Z,10.09
2019-04-30T21:53:30.562Z,10.06
2019-04-30T21:56:02.247Z,10.02
2019-04-30T21:58:33.851Z,9.97
2019-04-30T22:01:18.380Z,9.94
2019-04-30T22:03:51.623Z,9.91
2019-04-30T22:06:23.249Z,9.88
2019-04-30T22:08:54.840Z,9.84
2019-04-30T22:11:26.478Z,9.80
2019-04-30T22:13:58.061Z,9.77
2019-04-30T22:16:29.825Z,9.73
2019-04-30T22:19:01.595Z,9.68
2019-04-30T22:21:33.288Z,9.67
2019-04-30T22:24:04.908Z,9.62
2019-04-30T22:26:36.531Z,9.59
2019-04-30T22:29:09.351Z,9.58
2019-04-30T22:31:40.927Z,9.53
2019-04-30T22:34:12.519Z,9.47
2019-04-30T22:36:48.830Z,9.44
2019-04-30T22:39:34.541Z,9.43
2019-04-30T22:42:32.041Z,9.39
2019-04-30T22:45:13.824Z,9.39
2019-04-30T22:47:45.446Z,9.36
2019-04-30T22:50:17.111Z,9.34
2019-04-30T22:52:48.717Z,9.32
2019-04-30T22:55:20.347Z,9.28
2019-04-30T22:57:51.962Z,9.27
2019-04-30T23:00:30.339Z,9.24
2019-04-30T23:03:08.410Z,9.23
2019-04-30T23:05:40.157Z,9.22
2019-04-30T23:08:11.746Z,9.22
2019-04-30T23:10:43.307Z,9.26
2019-04-30T23:13:15.157Z,9.30
2019-04-30T23:15:46.718Z,9.26
2019-04-30T23:18:18.291Z,9.22
2019-04-30T23:20:49.967Z,9.14
2019-04-30T23:23:21.525Z,9.11
2019-04-30T23:25:53.127Z,9.12
2019-04-30T23:28:24.747Z,9.08
2019-04-30T23:30:56.376Z,8.99
2019-04-30T23:33:27.952Z,8.98
2019-04-30T23:35:59.544Z,8.99
2019-04-30T23:38:31.129Z,9.00
2019-04-30T23:41:03.400Z,8.99
2019-04-30T23:43:34.991Z,8.95
2019-04-30T23:46:06.583Z,8.93
2019-04-30T23:48:38.174Z,8.91
2019-04-30T23:51:09.787Z,8.89
2019-04-30T23:53:41.341Z,8.87
2019-04-30T23:56:12.946Z,8.86
2019-04-30T23:58:46.072Z,8.84
